createdAt,value
2022-09-13T00:01:38.111Z,2.00
2022-09-13T00:04:04.777Z,1.60
2022-09-13T00:06:31.616Z,1.50
2022-09-13T00:09:00.183Z,1.30
2022-09-13T00:11:29.317Z,1.50
2022-09-13T00:13:57.553Z,1.50
2022-09-13T00:16:27.452Z,1.40
2022-09-13T00:18:55.085Z,1.40
2022-09-13T00:21:23.880Z,1.50
2022-09-13T00:23:53.424Z,1.30
2022-09-13T00:26:26.381Z,1.20
2022-09-13T00:28:55.674Z,1.30
2022-09-13T00:31:24.724Z,1.50
2022-09-13T00:33:51.611Z,1.50
2022-09-13T00:36:18.724Z,1.50
2022-09-13T00:38:45.670Z,1.50
2022-09-13T00:41:15.727Z,1.40
2022-09-13T00:43:56.257Z,1.70
2022-09-13T00:46:48.827Z,2.20
2022-09-13T00:49:24.032Z,1.90
2022-09-13T00:51:59.792Z,1.90
2022-09-13T00:54:30.727Z,1.80
2022-09-13T00:57:01.652Z,1.80
2022-09-13T00:59:43.263Z,1.80
2022-09-13T01:02:11.279Z,1.70
2022-09-13T01:04:38.668Z,2.20
2022-09-13T01:07:11.170Z,2.00
2022-09-13T01:09:43.612Z,1.80
2022-09-13T01:12:31.429Z,1.60
2022-09-13T01:15:00.324Z,1.80
2022-09-13T01:17:29.670Z,1.90
2022-09-13T01:19:57.477Z,2.80
2022-09-13T01:23:18.267Z,1.90
2022-09-13T01:26:12.638Z,1.80
2022-09-13T01:29:06.434Z,1.50
2022-09-13T01:32:10.040Z,1.60
2022-09-13T01:35:03.184Z,1.50
2022-09-13T01:38:00.605Z,2.10
2022-09-13T01:41:13.250Z,1.90
2022-09-13T01:43:55.210Z,1.70
2022-09-13T01:46:46.173Z,2.20
2022-09-13T01:49:30.315Z,2.30
2022-09-13T01:52:25.524Z,2.30
2022-09-13T01:55:08.433Z,2.20
2022-09-13T01:57:57.002Z,2.00
2022-09-13T02:00:23.927Z,1.80
2022-09-13T02:02:57.391Z,2.10
2022-09-13T02:05:55.642Z,1.90
2022-09-13T02:08:46.705Z,2.00
2022-09-13T02:11:16.802Z,2.70
2022-09-13T02:14:05.465Z,2.10
2022-09-13T02:17:03.568Z,2.00
2022-09-13T02:19:55.751Z,2.00
2022-09-13T02:22:31.635Z,2.00
2022-09-13T02:25:07.267Z,2.10
2022-09-13T02:27:37.242Z,2.20
2022-09-13T02:30:09.784Z,2.30
2022-09-13T02:32:46.268Z,2.20
2022-09-13T02:35:18.652Z,2.60
2022-09-13T02:37:55.243Z,2.30
2022-09-13T02:40:28.116Z,2.60
2022-09-13T02:43:04.310Z,2.10
2022-09-13T02:45:46.464Z,2.30
2022-09-13T02:48:37.189Z,2.00
2022-09-13T02:51:30.637Z,2.30
2022-09-13T02:54:15.839Z,2.50
2022-09-13T02:56:48.879Z,2.50
2022-09-13T02:59:19.261Z,2.00
2022-09-13T03:01:59.243Z,2.30
2022-09-13T03:04:27.936Z,2.60
2022-09-13T03:06:54.857Z,2.20
2022-09-13T03:09:21.972Z,2.50
2022-09-13T03:12:07.095Z,2.80
2022-09-13T03:14:49.459Z,3.00
2022-09-13T03:17:31.158Z,2.60
2022-09-13T03:20:27.282Z,2.20
2022-09-13T03:23:08.950Z,3.10
2022-09-13T03:25:54.206Z,3.00
2022-09-13T03:28:47.231Z,3.10
2022-09-13T03:31:24.500Z,3.30
2022-09-13T03:34:32.334Z,2.90
2022-09-13T03:37:21.753Z,3.10
2022-09-13T03:40:02.770Z,2.70
2022-09-13T03:42:51.771Z,3.00
2022-09-13T03:45:23.946Z,3.50
2022-09-13T03:47:52.028Z,3.00
2022-09-13T03:50:23.845Z,3.20
2022-09-13T03:52:57.967Z,3.40
2022-09-13T03:57:52.148Z,3.00
2022-09-13T04:00:19.116Z,3.00
2022-09-13T04:02:45.884Z,3.60
2022-09-13T04:05:12.690Z,3.20
2022-09-13T04:07:39.428Z,3.00
2022-09-13T04:10:09.697Z,3.10
2022-09-13T04:12:40.835Z,2.80
2022-09-13T04:15:08.427Z,3.70
2022-09-13T04:17:35.738Z,3.90
2022-09-13T04:20:03.906Z,3.30
2022-09-13T04:22:31.081Z,3.70
2022-09-13T04:25:02.010Z,3.90
2022-09-13T04:27:29.286Z,4.10
2022-09-13T04:29:55.971Z,3.90
2022-09-13T04:32:22.797Z,4.70
2022-09-13T04:34:49.422Z,3.90
2022-09-13T04:37:16.176Z,4.10
2022-09-13T04:39:43.187Z,4.50
2022-09-13T04:42:10.924Z,4.80
2022-09-13T04:44:37.762Z,4.50
2022-09-13T04:47:05.767Z,4.90
2022-09-13T04:49:33.294Z,4.80
2022-09-13T04:51:59.940Z,5.20
2022-09-13T04:54:26.796Z,4.50
2022-09-13T04:56:54.644Z,4.80
2022-09-13T04:59:21.338Z,4.70
2022-09-13T05:01:48.064Z,5.30
2022-09-13T05:04:14.842Z,4.20
2022-09-13T05:06:41.549Z,4.70
2022-09-13T05:09:12.993Z,3.90
2022-09-13T05:11:40.379Z,4.20
2022-09-13T05:14:10.444Z,4.50
2022-09-13T05:16:37.502Z,4.50
2022-09-13T05:19:04.187Z,3.70
2022-09-13T05:21:31.167Z,4.80
2022-09-13T05:23:58.414Z,3.80
2022-09-13T05:26:30.510Z,4.10
2022-09-13T05:28:59.194Z,4.30
2022-09-13T05:31:32.647Z,4.60
2022-09-13T05:34:06.717Z,4.40
2022-09-13T05:36:34.041Z,4.10
2022-09-13T05:41:50.136Z,4.80
2022-09-13T05:44:16.834Z,4.80
2022-09-13T05:46:47.719Z,4.30
2022-09-13T05:49:14.925Z,5.00
2022-09-13T05:51:41.774Z,4.50
2022-09-13T05:54:12.017Z,4.40
2022-09-13T05:56:39.550Z,4.80
2022-09-13T05:59:06.509Z,4.60
2022-09-13T06:01:33.246Z,4.80
2022-09-13T06:04:00.094Z,5.20
2022-09-13T06:06:27.073Z,4.80
2022-09-13T06:08:55.737Z,4.00
2022-09-13T06:11:23.661Z,4.90
2022-09-13T06:13:50.918Z,4.20
2022-09-13T06:16:18.384Z,4.90
2022-09-13T06:18:45.149Z,5.00
2022-09-13T06:21:17.571Z,4.80
2022-09-13T06:23:46.321Z,5.50
2022-09-13T06:26:15.667Z,5.30
2022-09-13T06:28:42.886Z,4.70
2022-09-13T06:31:12.798Z,4.80
2022-09-13T06:33:41.796Z,4.90
2022-09-13T06:36:14.901Z,4.70
2022-09-13T06:38:41.777Z,4.90
2022-09-13T06:41:13.888Z,5.90
2022-09-13T06:43:41.901Z,5.40
2022-09-13T06:46:11.971Z,5.20
2022-09-13T06:48:43.843Z,5.00
2022-09-13T06:51:13.238Z,4.60
2022-09-13T06:53:41.286Z,4.40
2022-09-13T06:56:12.693Z,5.00
2022-09-13T06:58:41.526Z,4.20
2022-09-13T07:01:19.174Z,4.60
2022-09-13T07:03:54.089Z,4.10
2022-09-13T07:06:27.263Z,3.90
2022-09-13T07:08:56.932Z,3.70
2022-09-13T07:11:28.332Z,4.10
2022-09-13T07:13:56.939Z,3.90
2022-09-13T07:16:26.884Z,4.20
2022-09-13T07:18:55.969Z,3.60
2022-09-13T07:21:23.815Z,3.80
2022-09-13T07:23:52.162Z,3.30
2022-09-13T07:26:19.453Z,4.50
2022-09-13T07:28:48.433Z,4.80
2022-09-13T07:31:23.987Z,4.30
2022-09-13T07:33:59.051Z,3.60
2022-09-13T07:36:27.384Z,3.50
2022-09-13T07:38:54.582Z,3.80
2022-09-13T07:41:23.817Z,2.90
2022-09-13T07:44:18.482Z,3.60
2022-09-13T07:46:45.498Z,2.60
2022-09-13T07:49:16.132Z,3.30
2022-09-13T07:51:43.690Z,2.00
2022-09-13T07:54:15.854Z,2.60
2022-09-13T07:56:43.412Z,2.60
2022-09-13T07:59:15.255Z,3.30
2022-09-13T08:01:43.181Z,2.90
2022-09-13T08:04:13.108Z,2.70
2022-09-13T08:06:41.063Z,2.60
2022-09-13T08:09:09.837Z,3.30
2022-09-13T08:11:39.752Z,2.30
2022-09-13T08:14:12.229Z,2.50
2022-09-13T08:16:39.530Z,2.70
2022-09-13T08:19:08.148Z,2.90
2022-09-13T08:21:38.992Z,2.70
2022-09-13T08:24:08.196Z,2.70
2022-09-13T08:26:36.223Z,2.80
2022-09-13T08:29:06.228Z,2.70
2022-09-13T08:31:33.984Z,2.60
2022-09-13T08:34:00.962Z,3.00
2022-09-13T08:36:29.083Z,3.20
2022-09-13T08:38:59.063Z,2.60
2022-09-13T08:41:46.002Z,2.90
2022-09-13T08:44:47.469Z,3.20
2022-09-13T08:47:36.376Z,3.10
2022-09-13T08:50:14.977Z,3.60
2022-09-13T08:52:51.650Z,3.10
2022-09-13T08:55:46.640Z,3.20
2022-09-13T08:58:30.378Z,3.20
2022-09-13T09:01:11.915Z,2.70
2022-09-13T09:04:11.778Z,2.60
2022-09-13T09:06:38.719Z,2.50
2022-09-13T09:09:10.019Z,2.70
2022-09-13T09:11:59.247Z,2.90
2022-09-13T09:14:33.888Z,2.10
2022-09-13T09:17:06.053Z,2.50
2022-09-13T09:19:37.877Z,1.50
2022-09-13T09:22:21.462Z,2.50
2022-09-13T09:24:51.771Z,1.80
2022-09-13T09:27:20.959Z,2.00
2022-09-13T09:29:51.079Z,2.10
2022-09-13T09:32:38.496Z,2.00
2022-09-13T09:35:11.491Z,1.80
2022-09-13T09:37:41.618Z,1.70
2022-09-13T09:40:13.337Z,1.40
2022-09-13T09:42:46.415Z,1.80
2022-09-13T09:45:32.874Z,2.00
2022-09-13T09:48:06.590Z,1.90
2022-09-13T09:50:38.566Z,1.90
2022-09-13T09:53:09.352Z,2.00
2022-09-13T09:55:51.487Z,1.60
2022-09-13T09:58:39.708Z,2.00
2022-09-13T10:01:16.015Z,2.00
2022-09-13T10:03:51.034Z,1.60
2022-09-13T10:06:29.443Z,2.50
2022-09-13T10:09:03.375Z,2.00
2022-09-13T10:14:28.634Z,1.40
2022-09-13T10:17:05.539Z,1.60
2022-09-13T10:19:32.462Z,2.40
2022-09-13T10:22:10.685Z,1.70
2022-09-13T10:24:38.609Z,2.20
2022-09-13T10:27:21.690Z,1.80
2022-09-13T10:29:56.264Z,2.30
2022-09-13T10:32:23.300Z,2.40
2022-09-13T10:34:50.835Z,2.00
2022-09-13T10:37:34.844Z,2.10
2022-09-13T10:42:32.235Z,2.00
2022-09-13T10:45:04.503Z,1.80
2022-09-13T10:47:47.858Z,1.50
2022-09-13T10:50:17.461Z,1.80
2022-09-13T10:52:55.115Z,2.00
2022-09-13T10:55:27.778Z,1.70
2022-09-13T10:58:07.088Z,1.90
2022-09-13T11:00:55.895Z,1.70
2022-09-13T11:03:52.436Z,1.90
2022-09-13T11:06:28.302Z,2.70
2022-09-13T11:09:37.249Z,2.60
2022-09-13T11:12:18.434Z,2.60
2022-09-13T11:15:15.589Z,3.30
2022-09-13T11:17:53.896Z,3.60
2022-09-13T11:20:32.135Z,3.40
2022-09-13T11:23:14.447Z,2.90
2022-09-13T11:26:12.373Z,3.10
2022-09-13T11:28:57.454Z,2.60
2022-09-13T11:31:59.581Z,2.60
2022-09-13T11:34:53.296Z,2.70
2022-09-13T11:37:39.036Z,2.70
2022-09-13T11:40:21.113Z,3.90
2022-09-13T11:43:06.695Z,2.60
2022-09-13T11:45:44.736Z,1.60
2022-09-13T11:48:22.085Z,2.30
2022-09-13T11:51:06.032Z,1.50
2022-09-13T11:54:12.389Z,2.20
2022-09-13T11:56:44.313Z,1.70
2022-09-13T11:59:39.481Z,1.00
2022-09-13T12:02:18.041Z,1.10
2022-09-13T12:04:54.939Z,1.70
2022-09-13T12:07:40.120Z,2.10
2022-09-13T12:10:54.748Z,2.10
2022-09-13T12:13:27.833Z,2.50
2022-09-13T12:16:04.708Z,2.50
2022-09-13T12:18:37.813Z,2.20
2022-09-13T12:21:09.883Z,2.20
2022-09-13T12:23:47.444Z,2.40
2022-09-13T12:26:14.170Z,2.50
2022-09-13T12:28:49.013Z,2.20
2022-09-13T12:31:20.039Z,2.40
2022-09-13T12:33:48.242Z,2.70
2022-09-13T12:36:25.956Z,2.30
2022-09-13T12:39:23.486Z,2.20
2022-09-13T12:42:05.557Z,2.40
2022-09-13T12:44:41.967Z,2.20
2022-09-13T12:47:41.048Z,2.30
2022-09-13T12:50:43.019Z,2.40
2022-09-13T12:53:32.143Z,2.40
2022-09-13T12:56:25.434Z,1.90
2022-09-13T12:59:34.992Z,2.00
2022-09-13T13:02:22.537Z,1.90
2022-09-13T13:04:55.502Z,1.00
2022-09-13T13:07:23.369Z,1.50
2022-09-13T13:09:54.111Z,1.20
2022-09-13T13:12:29.477Z,1.80
2022-09-13T13:14:58.227Z,1.70
2022-09-13T13:17:42.429Z,1.10
2022-09-13T13:20:40.689Z,1.30
2022-09-13T13:23:26.499Z,1.20
2022-09-13T13:26:00.470Z,1.20
2022-09-13T13:28:47.113Z,1.30
2022-09-13T13:31:32.068Z,1.60
2022-09-13T13:34:02.120Z,1.90
2022-09-13T13:36:41.197Z,2.40
2022-09-13T13:39:22.979Z,3.40
2022-09-13T13:42:12.354Z,3.20
2022-09-13T13:44:41.750Z,3.20
2022-09-13T13:47:08.477Z,3.40
2022-09-13T13:49:40.911Z,4.70
2022-09-13T13:52:11.037Z,2.90
2022-09-13T13:54:50.109Z,3.90
2022-09-13T13:57:49.908Z,3.40
2022-09-13T14:00:20.671Z,2.60
2022-09-13T14:03:02.360Z,2.10
2022-09-13T14:05:39.173Z,3.10
2022-09-13T14:08:37.056Z,3.10
2022-09-13T14:11:16.014Z,3.10
2022-09-13T14:14:20.548Z,2.50
2022-09-13T14:16:53.384Z,2.50
2022-09-13T14:19:29.111Z,2.30
2022-09-13T14:22:11.797Z,2.60
2022-09-13T14:24:42.724Z,2.70
2022-09-13T14:27:19.699Z,1.90
2022-09-13T14:29:53.435Z,2.30
2022-09-13T14:32:35.844Z,2.00
2022-09-13T14:35:21.301Z,2.60
2022-09-13T14:37:48.088Z,2.80
2022-09-13T14:40:26.154Z,2.80
2022-09-13T14:42:54.952Z,2.70
2022-09-13T14:45:30.548Z,2.10
2022-09-13T14:48:07.542Z,2.10
2022-09-13T14:50:42.332Z,2.80
2022-09-13T14:53:27.630Z,2.90
2022-09-13T14:56:07.331Z,2.80
2022-09-13T14:58:46.054Z,2.70
2022-09-13T15:01:19.305Z,3.30
2022-09-13T15:03:48.411Z,3.20
2022-09-13T15:06:31.398Z,3.50
2022-09-13T15:09:26.094Z,3.30
2022-09-13T15:11:53.180Z,3.50
2022-09-13T15:14:27.990Z,3.00
2022-09-13T15:17:02.436Z,3.70
2022-09-13T15:19:35.968Z,3.50
2022-09-13T15:22:20.308Z,3.50
2022-09-13T15:24:53.681Z,5.60
2022-09-13T15:27:29.689Z,5.50
2022-09-13T15:30:03.317Z,5.00
2022-09-13T15:32:34.549Z,3.70
2022-09-13T15:35:01.877Z,3.10
2022-09-13T15:37:36.898Z,4.10
2022-09-13T15:40:18.266Z,3.20
2022-09-13T15:42:50.193Z,2.90
2022-09-13T15:45:19.998Z,3.30
2022-09-13T15:47:49.514Z,2.90
2022-09-13T15:50:30.410Z,3.10
2022-09-13T15:52:58.931Z,3.30
2022-09-13T15:55:27.146Z,2.90
2022-09-13T15:57:55.102Z,3.10
2022-09-13T16:00:24.934Z,3.10
2022-09-13T16:02:51.991Z,3.20
2022-09-13T16:05:19.408Z,3.50
2022-09-13T16:07:46.405Z,3.10
2022-09-13T16:10:20.587Z,3.30
2022-09-13T16:12:47.903Z,3.50
2022-09-13T16:15:15.431Z,3.30
2022-09-13T16:17:42.446Z,3.40
2022-09-13T16:20:14.442Z,3.10
2022-09-13T16:22:41.771Z,3.00
2022-09-13T16:25:12.612Z,3.30
2022-09-13T16:27:41.180Z,3.00
2022-09-13T16:30:12.444Z,3.60
2022-09-13T16:32:39.300Z,2.70
2022-09-13T16:35:07.307Z,2.80
2022-09-13T16:37:34.531Z,3.30
2022-09-13T16:40:01.897Z,3.80
2022-09-13T16:42:28.945Z,3.80
2022-09-13T16:44:55.813Z,4.50
2022-09-13T16:47:22.889Z,3.80
2022-09-13T16:49:49.694Z,3.70
2022-09-13T16:52:16.830Z,3.20
2022-09-13T16:54:48.713Z,2.90
2022-09-13T16:57:15.832Z,2.80
2022-09-13T16:59:42.729Z,2.60
2022-09-13T17:02:12.912Z,3.20
2022-09-13T17:04:40.239Z,3.50
2022-09-13T17:07:07.166Z,3.50
2022-09-13T17:09:34.623Z,3.40
2022-09-13T17:12:02.090Z,3.70
2022-09-13T17:14:29.211Z,4.00
2022-09-13T17:16:57.431Z,3.60
2022-09-13T17:19:30.811Z,3.70
2022-09-13T17:21:57.663Z,3.30
2022-09-13T17:24:26.725Z,3.80
2022-09-13T17:26:56.260Z,4.20
2022-09-13T17:29:24.868Z,4.40
2022-09-13T17:31:52.254Z,3.40
2022-09-13T17:34:19.091Z,3.90
2022-09-13T17:36:49.266Z,4.20
2022-09-13T17:39:18.689Z,4.30
2022-09-13T17:41:45.786Z,3.80
2022-09-13T17:44:12.611Z,3.50
2022-09-13T17:46:39.476Z,3.80
2022-09-13T17:49:06.482Z,3.80
2022-09-13T17:51:33.625Z,4.70
2022-09-13T17:54:03.222Z,4.00
2022-09-13T17:56:38.095Z,3.60
2022-09-13T17:59:16.772Z,4.10
2022-09-13T18:01:47.321Z,3.60
2022-09-13T18:04:15.553Z,3.90
2022-09-13T18:06:42.782Z,4.20
2022-09-13T18:09:10.924Z,4.30
2022-09-13T18:11:38.091Z,3.50
2022-09-13T18:14:05.734Z,3.90
2022-09-13T18:16:33.310Z,3.80
2022-09-13T18:19:00.791Z,4.20
2022-09-13T18:21:28.058Z,3.80
2022-09-13T18:23:58.235Z,3.20
2022-09-13T18:26:26.744Z,3.80
2022-09-13T18:29:01.182Z,3.60
2022-09-13T18:31:30.184Z,3.70
2022-09-13T18:33:59.657Z,3.90
2022-09-13T18:36:28.408Z,3.60
2022-09-13T18:38:56.424Z,3.60
2022-09-13T18:41:26.529Z,3.90
2022-09-13T18:43:55.883Z,3.80
2022-09-13T18:46:25.527Z,3.70
2022-09-13T18:48:54.621Z,3.80
2022-09-13T18:51:23.804Z,4.20
2022-09-13T18:53:51.441Z,3.90
2022-09-13T18:56:20.647Z,4.00
2022-09-13T18:58:47.582Z,3.70
2022-09-13T19:01:19.253Z,4.20
2022-09-13T19:03:48.702Z,3.10
2022-09-13T19:06:21.335Z,4.30
2022-09-13T19:08:49.701Z,4.10
2022-09-13T19:11:42.067Z,3.20
2022-09-13T19:14:05.813Z,4.00
2022-09-13T19:16:32.937Z,2.80
2022-09-13T19:18:59.903Z,3.10
2022-09-13T19:21:29.238Z,3.30
2022-09-13T19:23:59.839Z,3.20
2022-09-13T19:26:31.402Z,3.50
2022-09-13T19:29:04.493Z,3.30
2022-09-13T19:31:43.094Z,3.00
2022-09-13T19:34:10.881Z,3.90
2022-09-13T19:36:39.165Z,3.50
2022-09-13T19:39:06.994Z,3.70
2022-09-13T19:41:35.472Z,3.70
2022-09-13T19:44:03.806Z,5.40
2022-09-13T19:46:37.597Z,4.80
2022-09-13T19:51:37.836Z,3.50
2022-09-13T19:54:07.004Z,4.30
2022-09-13T19:56:37.417Z,4.40
2022-09-13T19:59:05.874Z,4.30
2022-09-13T20:01:35.377Z,4.30
2022-09-13T20:04:05.416Z,3.90
2022-09-13T20:06:41.111Z,5.20
2022-09-13T20:09:09.285Z,4.00
2022-09-13T20:11:42.102Z,3.80
2022-09-13T20:14:10.140Z,4.20
2022-09-13T20:16:39.435Z,4.30
2022-09-13T20:19:23.636Z,4.60
2022-09-13T20:21:54.939Z,4.20
2022-09-13T20:24:21.886Z,4.00
2022-09-13T20:26:51.475Z,4.40
2022-09-13T20:29:18.554Z,3.90
2022-09-13T20:31:45.325Z,5.60
2022-09-13T20:34:14.419Z,5.00
2022-09-13T20:36:43.665Z,4.80
2022-09-13T20:39:10.581Z,5.40
2022-09-13T20:41:37.381Z,5.50
2022-09-13T20:44:04.716Z,5.30
2022-09-13T20:46:31.602Z,5.90
2022-09-13T20:48:58.832Z,6.20
2022-09-13T20:51:26.286Z,6.20
2022-09-13T20:53:55.660Z,5.70
2022-09-13T20:56:22.986Z,6.20
2022-09-13T20:58:57.092Z,6.40
2022-09-13T21:01:25.868Z,5.80
2022-09-13T21:03:54.022Z,6.50
2022-09-13T21:06:23.635Z,6.50
2022-09-13T21:08:51.484Z,5.20
2022-09-13T21:11:34.240Z,6.10
2022-09-13T21:14:07.778Z,6.40
2022-09-13T21:16:38.331Z,6.30
2022-09-13T21:19:05.458Z,6.40
2022-09-13T21:21:35.034Z,6.50
2022-09-13T21:24:05.289Z,6.20
2022-09-13T21:26:32.632Z,6.30
2022-09-13T21:29:00.246Z,6.20
2022-09-13T21:31:33.104Z,5.90
2022-09-13T21:34:05.774Z,5.90
2022-09-13T21:36:34.852Z,6.10
2022-09-13T21:39:02.841Z,6.30
2022-09-13T21:41:30.453Z,6.70
2022-09-13T21:43:57.491Z,5.70
2022-09-13T21:46:29.703Z,5.80
2022-09-13T21:48:59.589Z,6.00
2022-09-13T21:51:38.103Z,5.90
2022-09-13T21:54:08.128Z,6.60
2022-09-13T21:56:38.374Z,6.00
2022-09-13T21:59:11.208Z,6.80
2022-09-13T22:01:39.218Z,6.30
2022-09-13T22:04:07.494Z,5.90
2022-09-13T22:06:34.723Z,6.30
2022-09-13T22:09:05.336Z,6.70
2022-09-13T22:11:44.239Z,6.60
2022-09-13T22:14:13.476Z,6.70
2022-09-13T22:16:42.115Z,6.20
2022-09-13T22:19:20.654Z,5.40
2022-09-13T22:21:49.958Z,7.10
2022-09-13T22:24:19.588Z,6.50
2022-09-13T22:26:48.753Z,6.00
2022-09-13T22:29:16.757Z,7.00
2022-09-13T22:31:45.441Z,6.50
2022-09-13T22:34:15.065Z,6.20
2022-09-13T22:36:42.236Z,6.10
2022-09-13T22:39:14.315Z,6.90
2022-09-13T22:41:41.384Z,5.30
2022-09-13T22:44:08.770Z,6.30
2022-09-13T22:46:40.717Z,5.60
2022-09-13T22:49:10.850Z,5.30
2022-09-13T22:51:37.596Z,5.60
2022-09-13T22:54:07.219Z,6.00
2022-09-13T22:56:36.246Z,5.40
2022-09-13T22:59:08.586Z,6.20
2022-09-13T23:01:35.952Z,6.40
2022-09-13T23:04:03.821Z,5.80
2022-09-13T23:06:31.313Z,5.70
2022-09-13T23:09:00.862Z,6.00
2022-09-13T23:11:38.577Z,5.80
2022-09-13T23:14:12.025Z,6.20
2022-09-13T23:16:44.441Z,5.60
2022-09-13T23:19:13.152Z,6.40
2022-09-13T23:21:41.597Z,5.60
2022-09-13T23:24:13.469Z,6.20
2022-09-13T23:26:41.296Z,7.00
2022-09-13T23:29:13.210Z,5.90
2022-09-13T23:31:40.428Z,6.50
2022-09-13T23:34:09.222Z,6.20
2022-09-13T23:36:39.048Z,5.90
2022-09-13T23:39:09.775Z,6.10
2022-09-13T23:41:36.811Z,6.10
2022-09-13T23:44:04.225Z,6.70
2022-09-13T23:46:31.469Z,6.30
2022-09-13T23:48:58.179Z,5.70
2022-09-13T23:51:26.646Z,6.00
2022-09-13T23:54:00.017Z,6.10
2022-09-13T23:56:29.764Z,5.90
2022-09-13T23:58:58.329Z,5.50
